sensor_id;sensor_type;location;lat;lon;timestamp;P1;durP1;ratioP1;P2;durP2;ratioP2
7025;SDS011;3554;42.132;24.786;2022-12-29T00:00:01;14.67;;;11.77;;
7025;SDS011;3554;42.132;24.786;2022-12-29T00:02:30;15.97;;;10.47;;
7025;SDS011;3554;42.132;24.786;2022-12-29T00:04:57;11.23;;;10.20;;
7025;SDS011;3554;42.132;24.786;2022-12-29T00:07:24;19.87;;;11.50;;
7025;SDS011;3554;42.132;24.786;2022-12-29T00:09:51;14.60;;;11.43;;
7025;SDS011;3554;42.132;24.786;2022-12-29T00:12:17;15.10;;;11.80;;
7025;SDS011;3554;42.132;24.786;2022-12-29T00:14:44;22.37;;;11.77;;
7025;SDS011;3554;42.132;24.786;2022-12-29T00:17:30;13.60;;;11.60;;
7025;SDS011;3554;42.132;24.786;2022-12-29T00:19:57;13.03;;;10.77;;
7025;SDS011;3554;42.132;24.786;2022-12-29T00:22:41;12.27;;;10.87;;
7025;SDS011;3554;42.132;24.786;2022-12-29T00:25:25;13.00;;;11.63;;
7025;SDS011;3554;42.132;24.786;2022-12-29T00:28:09;17.60;;;11.40;;
7025;SDS011;3554;42.132;24.786;2022-12-29T00:30:53;20.47;;;12.30;;
7025;SDS011;3554;42.132;24.786;2022-12-29T00:33:44;17.37;;;11.43;;
7025;SDS011;3554;42.132;24.786;2022-12-29T00:36:28;19.20;;;12.90;;
7025;SDS011;3554;42.132;24.786;2022-12-29T00:38:59;16.40;;;11.17;;
7025;SDS011;3554;42.132;24.786;2022-12-29T00:41:46;15.60;;;11.80;;
7025;SDS011;3554;42.132;24.786;2022-12-29T00:44:31;13.90;;;11.30;;
7025;SDS011;3554;42.132;24.786;2022-12-29T00:46:58;18.83;;;12.57;;
7025;SDS011;3554;42.132;24.786;2022-12-29T00:49:30;15.10;;;12.03;;
7025;SDS011;3554;42.132;24.786;2022-12-29T00:51:57;14.17;;;10.57;;
7025;SDS011;3554;42.132;24.786;2022-12-29T00:54:25;12.10;;;10.90;;
7025;SDS011;3554;42.132;24.786;2022-12-29T00:56:53;15.50;;;12.23;;
7025;SDS011;3554;42.132;24.786;2022-12-29T00:59:20;18.77;;;12.13;;
7025;SDS011;3554;42.132;24.786;2022-12-29T01:01:49;14.73;;;11.67;;
7025;SDS011;3554;42.132;24.786;2022-12-29T01:04:16;14.73;;;12.47;;
7025;SDS011;3554;42.132;24.786;2022-12-29T01:06:44;20.17;;;11.73;;
7025;SDS011;3554;42.132;24.786;2022-12-29T01:09:12;13.90;;;11.73;;
7025;SDS011;3554;42.132;24.786;2022-12-29T01:11:56;13.73;;;11.23;;
7025;SDS011;3554;42.132;24.786;2022-12-29T01:14:23;12.93;;;11.27;;
7025;SDS011;3554;42.132;24.786;2022-12-29T01:16:50;15.10;;;11.73;;
7025;SDS011;3554;42.132;24.786;2022-12-29T01:19:17;13.53;;;11.13;;
7025;SDS011;3554;42.132;24.786;2022-12-29T01:21:46;15.67;;;12.07;;
7025;SDS011;3554;42.132;24.786;2022-12-29T01:24:13;18.07;;;13.43;;
7025;SDS011;3554;42.132;24.786;2022-12-29T01:26:40;16.57;;;12.20;;
7025;SDS011;3554;42.132;24.786;2022-12-29T01:29:07;15.60;;;12.37;;
7025;SDS011;3554;42.132;24.786;2022-12-29T01:31:34;14.50;;;12.90;;
7025;SDS011;3554;42.132;24.786;2022-12-29T01:34:01;18.37;;;13.83;;
7025;SDS011;3554;42.132;24.786;2022-12-29T01:36:28;14.73;;;12.60;;
7025;SDS011;3554;42.132;24.786;2022-12-29T01:38:56;14.47;;;13.03;;
7025;SDS011;3554;42.132;24.786;2022-12-29T01:41:23;17.90;;;14.10;;
7025;SDS011;3554;42.132;24.786;2022-12-29T01:43:50;17.90;;;13.83;;
7025;SDS011;3554;42.132;24.786;2022-12-29T01:46:20;16.93;;;14.00;;
7025;SDS011;3554;42.132;24.786;2022-12-29T01:48:51;15.87;;;13.80;;
7025;SDS011;3554;42.132;24.786;2022-12-29T01:51:22;15.87;;;14.30;;
7025;SDS011;3554;42.132;24.786;2022-12-29T01:53:50;18.80;;;13.70;;
7025;SDS011;3554;42.132;24.786;2022-12-29T01:56:20;18.70;;;13.17;;
7025;SDS011;3554;42.132;24.786;2022-12-29T01:58:48;19.47;;;13.13;;
7025;SDS011;3554;42.132;24.786;2022-12-29T02:01:21;16.43;;;13.53;;
7025;SDS011;3554;42.132;24.786;2022-12-29T02:03:48;14.83;;;13.33;;
7025;SDS011;3554;42.132;24.786;2022-12-29T02:06:17;20.10;;;13.50;;
7025;SDS011;3554;42.132;24.786;2022-12-29T02:08:47;17.60;;;13.47;;
7025;SDS011;3554;42.132;24.786;2022-12-29T02:11:16;21.97;;;13.73;;
7025;SDS011;3554;42.132;24.786;2022-12-29T02:13:45;16.63;;;13.73;;
7025;SDS011;3554;42.132;24.786;2022-12-29T02:16:14;17.13;;;13.80;;
7025;SDS011;3554;42.132;24.786;2022-12-29T02:18:57;20.17;;;13.20;;
7025;SDS011;3554;42.132;24.786;2022-12-29T02:21:45;14.73;;;13.03;;
7025;SDS011;3554;42.132;24.786;2022-12-29T02:27:26;12.87;;;11.60;;
7025;SDS011;3554;42.132;24.786;2022-12-29T02:30:09;13.47;;;12.10;;
7025;SDS011;3554;42.132;24.786;2022-12-29T02:32:45;20.63;;;12.73;;
7025;SDS011;3554;42.132;24.786;2022-12-29T02:35:21;15.50;;;9.93;;
7025;SDS011;3554;42.132;24.786;2022-12-29T02:37:58;12.23;;;9.87;;
7025;SDS011;3554;42.132;24.786;2022-12-29T02:40:35;12.60;;;11.27;;
7025;SDS011;3554;42.132;24.786;2022-12-29T02:43:13;13.67;;;10.63;;
7025;SDS011;3554;42.132;24.786;2022-12-29T02:45:50;13.37;;;9.70;;
7025;SDS011;3554;42.132;24.786;2022-12-29T02:48:23;15.50;;;11.10;;
7025;SDS011;3554;42.132;24.786;2022-12-29T02:50:55;12.83;;;11.50;;
7025;SDS011;3554;42.132;24.786;2022-12-29T02:53:26;14.97;;;11.47;;
7025;SDS011;3554;42.132;24.786;2022-12-29T02:56:13;18.17;;;12.23;;
7025;SDS011;3554;42.132;24.786;2022-12-29T02:58:40;16.63;;;12.30;;
7025;SDS011;3554;42.132;24.786;2022-12-29T03:01:11;10.10;;;9.07;;
7025;SDS011;3554;42.132;24.786;2022-12-29T03:03:54;17.03;;;12.53;;
7025;SDS011;3554;42.132;24.786;2022-12-29T03:06:39;16.47;;;13.20;;
7025;SDS011;3554;42.132;24.786;2022-12-29T03:09:20;16.53;;;13.20;;
7025;SDS011;3554;42.132;24.786;2022-12-29T03:11:54;17.63;;;13.13;;
7025;SDS011;3554;42.132;24.786;2022-12-29T03:14:37;16.73;;;13.17;;
7025;SDS011;3554;42.132;24.786;2022-12-29T03:17:29;14.53;;;13.03;;
7025;SDS011;3554;42.132;24.786;2022-12-29T03:20:06;18.03;;;13.00;;
7025;SDS011;3554;42.132;24.786;2022-12-29T03:22:36;19.00;;;13.27;;
7025;SDS011;3554;42.132;24.786;2022-12-29T03:25:10;21.83;;;13.83;;
7025;SDS011;3554;42.132;24.786;2022-12-29T03:27:41;21.97;;;13.80;;
7025;SDS011;3554;42.132;24.786;2022-12-29T03:30:11;22.90;;;14.17;;
7025;SDS011;3554;42.132;24.786;2022-12-29T03:32:40;18.80;;;14.47;;
7025;SDS011;3554;42.132;24.786;2022-12-29T03:35:13;19.53;;;13.27;;
7025;SDS011;3554;42.132;24.786;2022-12-29T03:37:49;17.97;;;12.40;;
7025;SDS011;3554;42.132;24.786;2022-12-29T03:40:21;18.80;;;14.90;;
7025;SDS011;3554;42.132;24.786;2022-12-29T03:42:49;18.77;;;13.60;;
7025;SDS011;3554;42.132;24.786;2022-12-29T03:45:17;16.10;;;13.53;;
7025;SDS011;3554;42.132;24.786;2022-12-29T03:47:44;24.50;;;13.83;;
7025;SDS011;3554;42.132;24.786;2022-12-29T03:50:14;18.30;;;14.23;;
7025;SDS011;3554;42.132;24.786;2022-12-29T03:52:40;20.53;;;15.37;;
7025;SDS011;3554;42.132;24.786;2022-12-29T03:55:08;20.70;;;15.53;;
7025;SDS011;3554;42.132;24.786;2022-12-29T03:57:35;21.03;;;15.00;;
7025;SDS011;3554;42.132;24.786;2022-12-29T04:00:03;19.70;;;12.97;;
7025;SDS011;3554;42.132;24.786;2022-12-29T04:02:31;29.30;;;19.20;;
7025;SDS011;3554;42.132;24.786;2022-12-29T04:04:58;30.07;;;22.30;;
7025;SDS011;3554;42.132;24.786;2022-12-29T04:07:26;28.80;;;20.90;;
7025;SDS011;3554;42.132;24.786;2022-12-29T04:09:53;28.53;;;19.50;;
7025;SDS011;3554;42.132;24.786;2022-12-29T04:12:19;31.97;;;21.73;;
7025;SDS011;3554;42.132;24.786;2022-12-29T04:14:46;29.97;;;21.37;;
7025;SDS011;3554;42.132;24.786;2022-12-29T04:17:13;37.87;;;22.93;;
7025;SDS011;3554;42.132;24.786;2022-12-29T04:19:40;37.40;;;22.97;;
7025;SDS011;3554;42.132;24.786;2022-12-29T04:22:07;37.80;;;24.87;;
7025;SDS011;3554;42.132;24.786;2022-12-29T04:24:34;39.33;;;23.67;;
7025;SDS011;3554;42.132;24.786;2022-12-29T04:27:00;36.57;;;24.00;;
7025;SDS011;3554;42.132;24.786;2022-12-29T04:29:27;32.47;;;23.83;;
7025;SDS011;3554;42.132;24.786;2022-12-29T04:31:54;37.43;;;23.73;;
7025;SDS011;3554;42.132;24.786;2022-12-29T04:34:21;30.80;;;23.83;;
7025;SDS011;3554;42.132;24.786;2022-12-29T04:36:47;34.57;;;23.57;;
7025;SDS011;3554;42.132;24.786;2022-12-29T04:39:14;36.53;;;24.80;;
7025;SDS011;3554;42.132;24.786;2022-12-29T04:41:42;34.67;;;24.23;;
7025;SDS011;3554;42.132;24.786;2022-12-29T04:44:09;36.53;;;23.37;;
7025;SDS011;3554;42.132;24.786;2022-12-29T04:46:36;33.63;;;23.87;;
7025;SDS011;3554;42.132;24.786;2022-12-29T04:49:03;32.23;;;23.47;;
7025;SDS011;3554;42.132;24.786;2022-12-29T04:51:33;29.53;;;20.77;;
7025;SDS011;3554;42.132;24.786;2022-12-29T04:54:00;35.27;;;21.07;;
7025;SDS011;3554;42.132;24.786;2022-12-29T04:56:27;30.10;;;21.30;;
7025;SDS011;3554;42.132;24.786;2022-12-29T04:58:55;25.03;;;19.37;;
7025;SDS011;3554;42.132;24.786;2022-12-29T05:01:22;27.03;;;19.73;;
7025;SDS011;3554;42.132;24.786;2022-12-29T05:03:49;29.67;;;19.80;;
7025;SDS011;3554;42.132;24.786;2022-12-29T05:06:16;27.63;;;19.50;;
7025;SDS011;3554;42.132;24.786;2022-12-29T05:08:43;34.60;;;20.77;;
7025;SDS011;3554;42.132;24.786;2022-12-29T05:11:10;32.37;;;21.57;;
7025;SDS011;3554;42.132;24.786;2022-12-29T05:13:37;29.20;;;20.47;;
7025;SDS011;3554;42.132;24.786;2022-12-29T05:16:05;33.07;;;21.33;;
7025;SDS011;3554;42.132;24.786;2022-12-29T05:18:32;25.23;;;20.27;;
7025;SDS011;3554;42.132;24.786;2022-12-29T05:20:59;28.20;;;20.60;;
7025;SDS011;3554;42.132;24.786;2022-12-29T05:23:26;28.53;;;21.20;;
7025;SDS011;3554;42.132;24.786;2022-12-29T05:25:52;34.40;;;22.43;;
7025;SDS011;3554;42.132;24.786;2022-12-29T05:28:19;32.47;;;21.50;;
7025;SDS011;3554;42.132;24.786;2022-12-29T05:30:47;32.33;;;21.00;;
7025;SDS011;3554;42.132;24.786;2022-12-29T05:33:16;28.17;;;21.13;;
7025;SDS011;3554;42.132;24.786;2022-12-29T05:35:43;44.10;;;23.33;;
7025;SDS011;3554;42.132;24.786;2022-12-29T05:38:10;35.07;;;21.43;;
7025;SDS011;3554;42.132;24.786;2022-12-29T05:40:36;33.03;;;21.33;;
7025;SDS011;3554;42.132;24.786;2022-12-29T05:43:03;37.53;;;22.37;;
7025;SDS011;3554;42.132;24.786;2022-12-29T05:45:30;37.97;;;22.67;;
7025;SDS011;3554;42.132;24.786;2022-12-29T05:47:57;31.13;;;21.70;;
7025;SDS011;3554;42.132;24.786;2022-12-29T05:50:29;34.60;;;22.37;;
7025;SDS011;3554;42.132;24.786;2022-12-29T05:53:10;35.37;;;23.43;;
7025;SDS011;3554;42.132;24.786;2022-12-29T05:55:37;36.10;;;23.17;;
7025;SDS011;3554;42.132;24.786;2022-12-29T05:58:04;36.50;;;23.80;;
7025;SDS011;3554;42.132;24.786;2022-12-29T06:00:33;36.63;;;25.10;;
7025;SDS011;3554;42.132;24.786;2022-12-29T06:03:00;33.63;;;22.07;;
7025;SDS011;3554;42.132;24.786;2022-12-29T06:05:28;35.03;;;22.83;;
7025;SDS011;3554;42.132;24.786;2022-12-29T06:07:55;40.60;;;23.60;;
7025;SDS011;3554;42.132;24.786;2022-12-29T06:10:22;39.03;;;22.30;;
7025;SDS011;3554;42.132;24.786;2022-12-29T06:12:49;42.80;;;22.20;;
7025;SDS011;3554;42.132;24.786;2022-12-29T06:15:16;40.97;;;22.80;;
7025;SDS011;3554;42.132;24.786;2022-12-29T06:17:43;34.83;;;22.33;;
7025;SDS011;3554;42.132;24.786;2022-12-29T06:20:11;36.80;;;22.13;;
7025;SDS011;3554;42.132;24.786;2022-12-29T06:22:40;37.13;;;21.77;;
7025;SDS011;3554;42.132;24.786;2022-12-29T06:25:07;34.80;;;23.57;;
7025;SDS011;3554;42.132;24.786;2022-12-29T06:27:34;44.10;;;23.17;;
7025;SDS011;3554;42.132;24.786;2022-12-29T06:30:01;43.27;;;24.40;;
7025;SDS011;3554;42.132;24.786;2022-12-29T06:32:28;47.90;;;23.77;;
7025;SDS011;3554;42.132;24.786;2022-12-29T06:34:55;52.13;;;24.57;;
7025;SDS011;3554;42.132;24.786;2022-12-29T06:37:22;47.30;;;23.33;;
7025;SDS011;3554;42.132;24.786;2022-12-29T06:39:50;40.73;;;21.90;;
7025;SDS011;3554;42.132;24.786;2022-12-29T06:42:17;39.47;;;22.93;;
7025;SDS011;3554;42.132;24.786;2022-12-29T06:44:43;33.83;;;21.50;;
7025;SDS011;3554;42.132;24.786;2022-12-29T06:47:10;40.47;;;23.13;;
7025;SDS011;3554;42.132;24.786;2022-12-29T06:49:37;44.87;;;21.67;;
7025;SDS011;3554;42.132;24.786;2022-12-29T06:52:04;41.60;;;23.00;;
7025;SDS011;3554;42.132;24.786;2022-12-29T06:54:31;51.23;;;25.03;;
7025;SDS011;3554;42.132;24.786;2022-12-29T06:56:59;50.63;;;27.00;;
7025;SDS011;3554;42.132;24.786;2022-12-29T06:59:26;61.37;;;25.50;;
7025;SDS011;3554;42.132;24.786;2022-12-29T07:01:52;39.63;;;23.27;;
7025;SDS011;3554;42.132;24.786;2022-12-29T07:04:19;38.40;;;22.80;;
7025;SDS011;3554;42.132;24.786;2022-12-29T07:06:46;46.07;;;25.13;;
7025;SDS011;3554;42.132;24.786;2022-12-29T07:09:13;48.07;;;24.40;;
7025;SDS011;3554;42.132;24.786;2022-12-29T07:11:40;58.53;;;25.60;;
7025;SDS011;3554;42.132;24.786;2022-12-29T07:14:08;42.57;;;24.17;;
7025;SDS011;3554;42.132;24.786;2022-12-29T07:16:36;44.43;;;25.00;;
7025;SDS011;3554;42.132;24.786;2022-12-29T07:19:03;58.87;;;31.20;;
7025;SDS011;3554;42.132;24.786;2022-12-29T07:21:30;67.80;;;33.40;;
7025;SDS011;3554;42.132;24.786;2022-12-29T07:23:57;66.70;;;36.40;;
7025;SDS011;3554;42.132;24.786;2022-12-29T07:26:23;71.90;;;35.50;;
7025;SDS011;3554;42.132;24.786;2022-12-29T07:28:50;61.67;;;33.73;;
7025;SDS011;3554;42.132;24.786;2022-12-29T07:31:19;72.60;;;36.77;;
7025;SDS011;3554;42.132;24.786;2022-12-29T07:33:47;66.60;;;34.00;;
7025;SDS011;3554;42.132;24.786;2022-12-29T07:36:14;59.70;;;34.57;;
7025;SDS011;3554;42.132;24.786;2022-12-29T07:38:42;59.97;;;33.93;;
7025;SDS011;3554;42.132;24.786;2022-12-29T07:41:09;59.10;;;32.30;;
7025;SDS011;3554;42.132;24.786;2022-12-29T07:43:36;54.37;;;29.90;;
7025;SDS011;3554;42.132;24.786;2022-12-29T07:46:03;47.97;;;28.13;;
7025;SDS011;3554;42.132;24.786;2022-12-29T07:48:31;38.13;;;28.00;;
7025;SDS011;3554;42.132;24.786;2022-12-29T07:51:01;47.30;;;27.63;;
7025;SDS011;3554;42.132;24.786;2022-12-29T07:53:27;42.83;;;27.47;;
7025;SDS011;3554;42.132;24.786;2022-12-29T07:55:54;41.90;;;28.53;;
7025;SDS011;3554;42.132;24.786;2022-12-29T07:58:22;40.30;;;26.87;;
7025;SDS011;3554;42.132;24.786;2022-12-29T08:00:52;47.43;;;27.17;;
7025;SDS011;3554;42.132;24.786;2022-12-29T08:03:19;37.73;;;26.10;;
7025;SDS011;3554;42.132;24.786;2022-12-29T08:05:47;46.97;;;26.97;;
7025;SDS011;3554;42.132;24.786;2022-12-29T08:08:15;38.83;;;27.37;;
7025;SDS011;3554;42.132;24.786;2022-12-29T08:10:42;40.70;;;25.17;;
7025;SDS011;3554;42.132;24.786;2022-12-29T08:13:08;39.30;;;25.33;;
7025;SDS011;3554;42.132;24.786;2022-12-29T08:15:37;40.07;;;25.67;;
7025;SDS011;3554;42.132;24.786;2022-12-29T08:18:04;37.50;;;26.80;;
7025;SDS011;3554;42.132;24.786;2022-12-29T08:20:31;34.57;;;25.50;;
7025;SDS011;3554;42.132;24.786;2022-12-29T08:22:59;31.97;;;24.37;;
7025;SDS011;3554;42.132;24.786;2022-12-29T08:25:26;37.37;;;22.73;;
7025;SDS011;3554;42.132;24.786;2022-12-29T08:27:53;43.87;;;22.23;;
7025;SDS011;3554;42.132;24.786;2022-12-29T08:30:19;31.60;;;22.10;;
7025;SDS011;3554;42.132;24.786;2022-12-29T08:32:46;32.53;;;22.13;;
7025;SDS011;3554;42.132;24.786;2022-12-29T08:35:13;27.63;;;20.33;;
7025;SDS011;3554;42.132;24.786;2022-12-29T08:37:40;33.47;;;21.93;;
7025;SDS011;3554;42.132;24.786;2022-12-29T08:40:08;30.00;;;21.93;;
7025;SDS011;3554;42.132;24.786;2022-12-29T08:42:36;35.13;;;23.90;;
7025;SDS011;3554;42.132;24.786;2022-12-29T08:45:03;32.90;;;21.87;;
7025;SDS011;3554;42.132;24.786;2022-12-29T08:47:30;29.87;;;21.70;;
7025;SDS011;3554;42.132;24.786;2022-12-29T08:49:57;28.13;;;21.30;;
7025;SDS011;3554;42.132;24.786;2022-12-29T08:52:24;30.07;;;20.53;;
7025;SDS011;3554;42.132;24.786;2022-12-29T08:54:50;31.07;;;21.57;;
7025;SDS011;3554;42.132;24.786;2022-12-29T08:57:18;34.17;;;20.70;;
7025;SDS011;3554;42.132;24.786;2022-12-29T08:59:45;26.10;;;19.50;;
7025;SDS011;3554;42.132;24.786;2022-12-29T09:02:12;25.27;;;18.73;;
7025;SDS011;3554;42.132;24.786;2022-12-29T09:04:39;27.17;;;20.70;;
7025;SDS011;3554;42.132;24.786;2022-12-29T09:07:05;29.10;;;20.43;;
7025;SDS011;3554;42.132;24.786;2022-12-29T09:09:32;27.53;;;20.97;;
7025;SDS011;3554;42.132;24.786;2022-12-29T09:11:59;33.03;;;23.07;;
7025;SDS011;3554;42.132;24.786;2022-12-29T09:14:28;29.80;;;21.00;;
7025;SDS011;3554;42.132;24.786;2022-12-29T09:16:54;31.17;;;21.20;;
7025;SDS011;3554;42.132;24.786;2022-12-29T09:19:39;34.90;;;21.87;;
7025;SDS011;3554;42.132;24.786;2022-12-29T09:22:05;34.60;;;21.43;;
7025;SDS011;3554;42.132;24.786;2022-12-29T09:24:32;27.50;;;21.10;;
7025;SDS011;3554;42.132;24.786;2022-12-29T09:26:59;32.60;;;22.77;;
7025;SDS011;3554;42.132;24.786;2022-12-29T09:29:27;34.00;;;22.37;;
7025;SDS011;3554;42.132;24.786;2022-12-29T09:31:54;35.00;;;22.13;;
7025;SDS011;3554;42.132;24.786;2022-12-29T09:34:21;32.13;;;23.33;;
7025;SDS011;3554;42.132;24.786;2022-12-29T09:36:48;34.30;;;22.70;;
7025;SDS011;3554;42.132;24.786;2022-12-29T09:39:14;33.50;;;22.87;;
7025;SDS011;3554;42.132;24.786;2022-12-29T09:41:43;33.43;;;22.70;;
7025;SDS011;3554;42.132;24.786;2022-12-29T09:44:16;33.43;;;22.50;;
7025;SDS011;3554;42.132;24.786;2022-12-29T09:46:50;34.23;;;23.00;;
7025;SDS011;3554;42.132;24.786;2022-12-29T09:49:23;42.10;;;28.27;;
7025;SDS011;3554;42.132;24.786;2022-12-29T09:51:59;27.17;;;21.47;;
7025;SDS011;3554;42.132;24.786;2022-12-29T09:54:39;35.20;;;23.00;;
7025;SDS011;3554;42.132;24.786;2022-12-29T09:57:18;30.53;;;22.27;;
7025;SDS011;3554;42.132;24.786;2022-12-29T09:59:48;33.63;;;23.30;;
7025;SDS011;3554;42.132;24.786;2022-12-29T10:05:16;32.97;;;21.80;;
7025;SDS011;3554;42.132;24.786;2022-12-29T10:07:52;30.20;;;22.10;;
7025;SDS011;3554;42.132;24.786;2022-12-29T10:10:29;28.73;;;20.07;;
7025;SDS011;3554;42.132;24.786;2022-12-29T10:13:03;33.60;;;20.93;;
